sensor_id;sensor_type;location;lat;lon;timestamp;pressure;altitude;pressure_sealevel;temperature;humidity
27202;BME280;14717;46.924;15.474;2023-04-02T00:02:34;96947.53;;;9.28;94.31
27202;BME280;14717;46.924;15.474;2023-04-02T00:07:41;96934.69;;;9.23;95.42
27202;BME280;14717;46.924;15.474;2023-04-02T00:10:28;96942.84;;;9.15;95.56
27202;BME280;14717;46.924;15.474;2023-04-02T00:15:42;96942.63;;;9.38;95.66
27202;BME280;14717;46.924;15.474;2023-04-02T00:18:12;96934.47;;;9.33;95.35
27202;BME280;14717;46.924;15.474;2023-04-02T00:20:41;96929.91;;;9.29;94.98
27202;BME280;14717;46.924;15.474;2023-04-02T00:23:11;96942.25;;;9.18;95.44
27202;BME280;14717;46.924;15.474;2023-04-02T00:25:38;96941.25;;;9.00;95.97
27202;BME280;14717;46.924;15.474;2023-04-02T00:28:21;96923.88;;;9.13;96.10
27202;BME280;14717;46.924;15.474;2023-04-02T00:30:52;96935.31;;;9.20;95.28
27202;BME280;14717;46.924;15.474;2023-04-02T00:33:21;96930.22;;;9.00;95.57
27202;BME280;14717;46.924;15.474;2023-04-02T00:35:49;96932.53;;;8.80;98.21
27202;BME280;14717;46.924;15.474;2023-04-02T00:38:34;96934.28;;;8.76;99.07
27202;BME280;14717;46.924;15.474;2023-04-02T00:41:04;96934.97;;;8.82;98.29
27202;BME280;14717;46.924;15.474;2023-04-02T00:43:34;96939.97;;;8.80;98.37
27202;BME280;14717;46.924;15.474;2023-04-02T00:46:03;96944.13;;;8.64;97.56
27202;BME280;14717;46.924;15.474;2023-04-02T00:48:55;96935.78;;;8.69;98.75
27202;BME280;14717;46.924;15.474;2023-04-02T00:51:30;96933.34;;;8.81;98.21
27202;BME280;14717;46.924;15.474;2023-04-02T00:54:00;96931.81;;;8.75;98.41
27202;BME280;14717;46.924;15.474;2023-04-02T00:56:42;96931.31;;;8.73;97.62
27202;BME280;14717;46.924;15.474;2023-04-02T00:59:26;96936.09;;;8.81;96.72
27202;BME280;14717;46.924;15.474;2023-04-02T01:01:56;96937.28;;;8.48;97.69
27202;BME280;14717;46.924;15.474;2023-04-02T01:04:33;96934.03;;;8.28;99.25
27202;BME280;14717;46.924;15.474;2023-04-02T01:07:04;96930.66;;;8.17;99.87
27202;BME280;14717;46.924;15.474;2023-04-02T01:12:47;96931.97;;;8.02;99.93
27202;BME280;14717;46.924;15.474;2023-04-02T01:15:09;96927.75;;;8.09;100.00
27202;BME280;14717;46.924;15.474;2023-04-02T01:29:18;96928.09;;;7.71;99.87
27202;BME280;14717;46.924;15.474;2023-04-02T01:31:45;96928.38;;;7.88;99.92
27202;BME280;14717;46.924;15.474;2023-04-02T01:34:19;96936.66;;;8.01;100.00
27202;BME280;14717;46.924;15.474;2023-04-02T01:45:00;96944.78;;;7.56;100.00
27202;BME280;14717;46.924;15.474;2023-04-02T01:47:26;96948.41;;;7.70;100.00
27202;BME280;14717;46.924;15.474;2023-04-02T01:50:16;96945.38;;;7.90;100.00
27202;BME280;14717;46.924;15.474;2023-04-02T01:53:13;96952.75;;;8.12;100.00
27202;BME280;14717;46.924;15.474;2023-04-02T01:55:43;96950.41;;;8.19;100.00
27202;BME280;14717;46.924;15.474;2023-04-02T01:58:11;96960.09;;;8.17;100.00
27202;BME280;14717;46.924;15.474;2023-04-02T02:00:50;96951.69;;;8.08;100.00
27202;BME280;14717;46.924;15.474;2023-04-02T02:03:18;96955.41;;;8.17;100.00
27202;BME280;14717;46.924;15.474;2023-04-02T02:05:44;96955.69;;;7.98;100.00
27202;BME280;14717;46.924;15.474;2023-04-02T02:08:33;96963.88;;;8.03;100.00
27202;BME280;14717;46.924;15.474;2023-04-02T02:11:02;96960.41;;;8.15;100.00
27202;BME280;14717;46.924;15.474;2023-04-02T02:13:27;96958.28;;;8.26;100.00
27202;BME280;14717;46.924;15.474;2023-04-02T02:15:57;96967.88;;;8.28;100.00
27202;BME280;14717;46.924;15.474;2023-04-02T02:18:23;96965.31;;;8.18;100.00
27202;BME280;14717;46.924;15.474;2023-04-02T02:20:50;96963.88;;;8.03;100.00
27202;BME280;14717;46.924;15.474;2023-04-02T02:23:17;96963.06;;;7.84;100.00
27202;BME280;14717;46.924;15.474;2023-04-02T02:25:43;96959.63;;;7.92;100.00
27202;BME280;14717;46.924;15.474;2023-04-02T02:28:17;96971.69;;;7.96;100.00
27202;BME280;14717;46.924;15.474;2023-04-02T02:30:52;96962.31;;;7.60;100.00
27202;BME280;14717;46.924;15.474;2023-04-02T02:33:40;96968.53;;;7.47;100.00
27202;BME280;14717;46.924;15.474;2023-04-02T02:36:32;96961.34;;;7.51;100.00
27202;BME280;14717;46.924;15.474;2023-04-02T02:39:16;96961.78;;;7.58;100.00
27202;BME280;14717;46.924;15.474;2023-04-02T02:41:52;96967.09;;;7.31;100.00
27202;BME280;14717;46.924;15.474;2023-04-02T02:44:23;96965.13;;;7.14;100.00
27202;BME280;14717;46.924;15.474;2023-04-02T02:49:32;96973.44;;;7.50;100.00
27202;BME280;14717;46.924;15.474;2023-04-02T02:54:30;96972.91;;;7.48;100.00
27202;BME280;14717;46.924;15.474;2023-04-02T02:57:00;96978.94;;;7.50;100.00
27202;BME280;14717;46.924;15.474;2023-04-02T02:59:28;96974.72;;;7.58;100.00
27202;BME280;14717;46.924;15.474;2023-04-02T03:01:55;96977.03;;;7.69;100.00
27202;BME280;14717;46.924;15.474;2023-04-02T03:04:21;96978.72;;;7.65;100.00
27202;BME280;14717;46.924;15.474;2023-04-02T03:06:49;96980.31;;;7.71;100.00
27202;BME280;14717;46.924;15.474;2023-04-02T03:18:01;96995.75;;;7.25;100.00
27202;BME280;14717;46.924;15.474;2023-04-02T03:20:48;96989.66;;;7.28;100.00
27202;BME280;14717;46.924;15.474;2023-04-02T03:23:34;96988.06;;;7.22;100.00
27202;BME280;14717;46.924;15.474;2023-04-02T03:26:03;96992.75;;;6.99;100.00
27202;BME280;14717;46.924;15.474;2023-04-02T03:28:35;96994.44;;;6.95;100.00
27202;BME280;14717;46.924;15.474;2023-04-02T03:31:23;96992.38;;;7.10;100.00
27202;BME280;14717;46.924;15.474;2023-04-02T03:33:55;96993.69;;;7.13;100.00
27202;BME280;14717;46.924;15.474;2023-04-02T03:36:24;97003.16;;;7.02;100.00
27202;BME280;14717;46.924;15.474;2023-04-02T03:39:14;97003.47;;;7.23;100.00
27202;BME280;14717;46.924;15.474;2023-04-02T03:41:52;96996.13;;;7.37;100.00
27202;BME280;14717;46.924;15.474;2023-04-02T03:44:27;96996.97;;;7.15;100.00
27202;BME280;14717;46.924;15.474;2023-04-02T03:47:01;97004.56;;;7.22;100.00
27202;BME280;14717;46.924;15.474;2023-04-02T03:49:47;97004.44;;;7.32;100.00
27202;BME280;14717;46.924;15.474;2023-04-02T03:52:21;97011.88;;;7.32;100.00
27202;BME280;14717;46.924;15.474;2023-04-02T03:54:48;97010.34;;;7.21;100.00
27202;BME280;14717;46.924;15.474;2023-04-02T03:57:25;97016.84;;;7.30;100.00
27202;BME280;14717;46.924;15.474;2023-04-02T04:00:00;97016.31;;;7.28;100.00
27202;BME280;14717;46.924;15.474;2023-04-02T04:02:42;97017.75;;;7.44;100.00
27202;BME280;14717;46.924;15.474;2023-04-02T04:05:20;97033.16;;;7.21;100.00
27202;BME280;14717;46.924;15.474;2023-04-02T04:07:48;97024.97;;;7.17;100.00
27202;BME280;14717;46.924;15.474;2023-04-02T04:10:24;97038.63;;;7.21;100.00
27202;BME280;14717;46.924;15.474;2023-04-02T04:12:52;97044.75;;;7.14;100.00
27202;BME280;14717;46.924;15.474;2023-04-02T04:15:24;97039.63;;;7.07;100.00
27202;BME280;14717;46.924;15.474;2023-04-02T04:20:23;97047.91;;;7.02;100.00
27202;BME280;14717;46.924;15.474;2023-04-02T04:22:50;97051.47;;;7.03;100.00
27202;BME280;14717;46.924;15.474;2023-04-02T04:25:29;97050.25;;;7.14;100.00
27202;BME280;14717;46.924;15.474;2023-04-02T04:28:08;97054.78;;;7.00;100.00
27202;BME280;14717;46.924;15.474;2023-04-02T04:31:07;97053.53;;;7.16;100.00
27202;BME280;14717;46.924;15.474;2023-04-02T04:33:43;97050.38;;;7.27;100.00
27202;BME280;14717;46.924;15.474;2023-04-02T04:36:20;97055.97;;;7.17;100.00
27202;BME280;14717;46.924;15.474;2023-04-02T04:38:54;97054.22;;;7.26;100.00
27202;BME280;14717;46.924;15.474;2023-04-02T04:41:43;97060.25;;;7.28;100.00
27202;BME280;14717;46.924;15.474;2023-04-02T04:44:21;97059.94;;;7.29;100.00
27202;BME280;14717;46.924;15.474;2023-04-02T04:47:07;97064.28;;;7.12;100.00
27202;BME280;14717;46.924;15.474;2023-04-02T04:52:09;97055.06;;;7.26;100.00
27202;BME280;14717;46.924;15.474;2023-04-02T04:54:38;97066.50;;;7.10;100.00
27202;BME280;14717;46.924;15.474;2023-04-02T04:57:05;97062.38;;;7.08;100.00
27202;BME280;14717;46.924;15.474;2023-04-02T04:59:34;97064.50;;;7.16;100.00
27202;BME280;14717;46.924;15.474;2023-04-02T05:04:32;97076.00;;;7.18;100.00
27202;BME280;14717;46.924;15.474;2023-04-02T05:07:05;97082.28;;;7.23;100.00
27202;BME280;14717;46.924;15.474;2023-04-02T05:09:39;97084.44;;;7.26;100.00
27202;BME280;14717;46.924;15.474;2023-04-02T05:12:32;97086.94;;;7.22;100.00
27202;BME280;14717;46.924;15.474;2023-04-02T05:15:28;97081.28;;;7.37;100.00
27202;BME280;14717;46.924;15.474;2023-04-02T05:20:39;97086.38;;;7.25;100.00
27202;BME280;14717;46.924;15.474;2023-04-02T05:28:59;97103.47;;;7.18;100.00
27202;BME280;14717;46.924;15.474;2023-04-02T05:31:39;97101.31;;;7.15;100.00
27202;BME280;14717;46.924;15.474;2023-04-02T05:34:07;97101.69;;;7.31;100.00
27202;BME280;14717;46.924;15.474;2023-04-02T05:36:33;97101.78;;;7.50;100.00
27202;BME280;14717;46.924;15.474;2023-04-02T05:38:58;97100.84;;;7.59;100.00
27202;BME280;14717;46.924;15.474;2023-04-02T05:41:40;97096.44;;;7.58;100.00
27202;BME280;14717;46.924;15.474;2023-04-02T05:44:24;97104.34;;;7.64;100.00
27202;BME280;14717;46.924;15.474;2023-04-02T05:47:08;97106.84;;;7.61;100.00
27202;BME280;14717;46.924;15.474;2023-04-02T05:49:45;97109.72;;;7.74;100.00
27202;BME280;14717;46.924;15.474;2023-04-02T05:52:21;97119.34;;;7.72;100.00
27202;BME280;14717;46.924;15.474;2023-04-02T05:54:54;97109.88;;;7.83;100.00
27202;BME280;14717;46.924;15.474;2023-04-02T05:57:31;97117.47;;;7.91;100.00
27202;BME280;14717;46.924;15.474;2023-04-02T06:00:03;97121.44;;;8.03;100.00
27202;BME280;14717;46.924;15.474;2023-04-02T06:02:40;97112.19;;;8.17;100.00
27202;BME280;14717;46.924;15.474;2023-04-02T06:05:18;97110.41;;;8.26;100.00
27202;BME280;14717;46.924;15.474;2023-04-02T06:07:56;97117.41;;;8.37;100.00
27202;BME280;14717;46.924;15.474;2023-04-02T06:10:29;97108.72;;;8.30;100.00
27202;BME280;14717;46.924;15.474;2023-04-02T06:13:05;97115.69;;;8.23;100.00
27202;BME280;14717;46.924;15.474;2023-04-02T06:15:32;97115.97;;;8.21;100.00
27202;BME280;14717;46.924;15.474;2023-04-02T06:18:00;97111.63;;;8.20;100.00
27202;BME280;14717;46.924;15.474;2023-04-02T06:20:29;97124.16;;;8.26;100.00
27202;BME280;14717;46.924;15.474;2023-04-02T06:25:29;97122.09;;;8.37;99.42
27202;BME280;14717;46.924;15.474;2023-04-02T06:27:58;97132.75;;;8.43;99.39
27202;BME280;14717;46.924;15.474;2023-04-02T06:30:35;97136.00;;;8.45;99.90
27202;BME280;14717;46.924;15.474;2023-04-02T06:33:02;97131.75;;;8.52;98.53
27202;BME280;14717;46.924;15.474;2023-04-02T06:35:28;97135.72;;;8.65;98.24
27202;BME280;14717;46.924;15.474;2023-04-02T06:37:56;97140.78;;;8.76;96.82
27202;BME280;14717;46.924;15.474;2023-04-02T06:40:40;97145.06;;;8.82;96.28
27202;BME280;14717;46.924;15.474;2023-04-02T06:45:42;97160.38;;;9.06;94.24
27202;BME280;14717;46.924;15.474;2023-04-02T06:48:15;97162.44;;;9.14;92.97
27202;BME280;14717;46.924;15.474;2023-04-02T06:50:47;97160.94;;;9.22;92.40
27202;BME280;14717;46.924;15.474;2023-04-02T06:53:28;97160.16;;;9.34;91.88
27202;BME280;14717;46.924;15.474;2023-04-02T06:56:04;97169.19;;;9.40;92.20
27202;BME280;14717;46.924;15.474;2023-04-02T06:58:30;97164.09;;;9.47;91.52
27202;BME280;14717;46.924;15.474;2023-04-02T07:00:55;97167.34;;;9.49;90.08
27202;BME280;14717;46.924;15.474;2023-04-02T07:03:26;97166.56;;;9.62;90.53
27202;BME280;14717;46.924;15.474;2023-04-02T07:05:52;97168.38;;;9.53;91.44
27202;BME280;14717;46.924;15.474;2023-04-02T07:08:18;97176.66;;;9.21;91.22
27202;BME280;14717;46.924;15.474;2023-04-02T07:10:44;97179.28;;;9.44;92.47
27202;BME280;14717;46.924;15.474;2023-04-02T07:13:14;97165.97;;;9.65;91.81
27202;BME280;14717;46.924;15.474;2023-04-02T07:15:41;97176.06;;;9.82;90.35
27202;BME280;14717;46.924;15.474;2023-04-02T07:18:21;97169.38;;;10.02;90.47
27202;BME280;14717;46.924;15.474;2023-04-02T07:20:47;97183.28;;;10.10;88.99
27202;BME280;14717;46.924;15.474;2023-04-02T07:23:12;97180.97;;;10.17;87.81
27202;BME280;14717;46.924;15.474;2023-04-02T07:25:38;97182.69;;;10.13;86.29
27202;BME280;14717;46.924;15.474;2023-04-02T07:28:04;97181.97;;;10.21;85.73
27202;BME280;14717;46.924;15.474;2023-04-02T07:30:30;97179.00;;;10.31;86.07
27202;BME280;14717;46.924;15.474;2023-04-02T07:32:55;97188.63;;;10.47;86.56
27202;BME280;14717;46.924;15.474;2023-04-02T07:35:20;97182.25;;;10.33;85.85
27202;BME280;14717;46.924;15.474;2023-04-02T07:37:46;97185.41;;;10.53;86.05
27202;BME280;14717;46.924;15.474;2023-04-02T07:40:17;97186.31;;;10.62;84.96
27202;BME280;14717;46.924;15.474;2023-04-02T07:42:44;97185.19;;;10.76;84.39
27202;BME280;14717;46.924;15.474;2023-04-02T07:45:10;97185.91;;;10.68;85.33
27202;BME280;14717;46.924;15.474;2023-04-02T07:47:36;97196.75;;;10.78;83.73
27202;BME280;14717;46.924;15.474;2023-04-02T07:50:01;97195.34;;;10.89;83.31
27202;BME280;14717;46.924;15.474;2023-04-02T07:52:28;97189.41;;;10.96;84.88
27202;BME280;14717;46.924;15.474;2023-04-02T07:54:53;97196.94;;;10.82;82.95
27202;BME280;14717;46.924;15.474;2023-04-02T07:57:18;97201.50;;;11.00;81.72
27202;BME280;14717;46.924;15.474;2023-04-02T07:59:45;97211.25;;;11.19;82.28
27202;BME280;14717;46.924;15.474;2023-04-02T08:02:20;97201.31;;;11.18;81.45
27202;BME280;14717;46.924;15.474;2023-04-02T08:04:48;97203.41;;;11.34;81.04
27202;BME280;14717;46.924;15.474;2023-04-02T08:07:13;97205.94;;;11.44;79.79
27202;BME280;14717;46.924;15.474;2023-04-02T08:09:38;97207.31;;;11.55;79.14
27202;BME280;14717;46.924;15.474;2023-04-02T08:12:04;97212.28;;;11.66;80.62
27202;BME280;14717;46.924;15.474;2023-04-02T08:14:29;97207.78;;;11.70;81.62
27202;BME280;14717;46.924;15.474;2023-04-02T08:16:55;97203.72;;;11.76;80.49
27202;BME280;14717;46.924;15.474;2023-04-02T08:19:21;97204.22;;;12.00;79.65
27202;BME280;14717;46.924;15.474;2023-04-02T08:21:47;97203.38;;;11.99;78.46
27202;BME280;14717;46.924;15.474;2023-04-02T08:24:16;97196.41;;;12.02;78.85
27202;BME280;14717;46.924;15.474;2023-04-02T08:26:44;97209.47;;;12.10;77.25
27202;BME280;14717;46.924;15.474;2023-04-02T08:29:09;97216.91;;;12.01;76.40
27202;BME280;14717;46.924;15.474;2023-04-02T08:31:35;97210.81;;;12.21;76.59
27202;BME280;14717;46.924;15.474;2023-04-02T08:34:00;97208.91;;;12.30;76.48
27202;BME280;14717;46.924;15.474;2023-04-02T08:36:28;97207.31;;;12.45;75.62
27202;BME280;14717;46.924;15.474;2023-04-02T08:38:55;97212.38;;;12.43;75.44
27202;BME280;14717;46.924;15.474;2023-04-02T08:41:22;97206.03;;;12.43;76.11
27202;BME280;14717;46.924;15.474;2023-04-02T08:46:50;97209.16;;;12.58;75.70
27202;BME280;14717;46.924;15.474;2023-04-02T08:52:21;97202.59;;;12.93;73.68
27202;BME280;14717;46.924;15.474;2023-04-02T08:54:48;97209.63;;;13.07;71.75
27202;BME280;14717;46.924;15.474;2023-04-02T08:59:43;97209.16;;;12.97;71.58
27202;BME280;14717;46.924;15.474;2023-04-02T09:02:39;97212.91;;;13.18;70.16
27202;BME280;14717;46.924;15.474;2023-04-02T09:05:06;97216.69;;;13.30;67.85
27202;BME280;14717;46.924;15.474;2023-04-02T09:07:40;97217.16;;;13.15;66.44
27202;BME280;14717;46.924;15.474;2023-04-02T09:10:11;97220.09;;;13.27;67.87
27202;BME280;14717;46.924;15.474;2023-04-02T09:12:39;97210.81;;;13.31;69.54
27202;BME280;14717;46.924;15.474;2023-04-02T09:17:34;97220.28;;;13.64;68.18
27202;BME280;14717;46.924;15.474;2023-04-02T09:20:19;97223.69;;;13.61;67.97
27202;BME280;14717;46.924;15.474;2023-04-02T09:22:47;97225.31;;;13.62;66.81
27202;BME280;14717;46.924;15.474;2023-04-02T09:25:28;97226.63;;;13.73;65.85
27202;BME280;14717;46.924;15.474;2023-04-02T09:28:00;97229.88;;;13.83;65.46
27202;BME280;14717;46.924;15.474;2023-04-02T09:30:28;97231.31;;;14.14;65.53
27202;BME280;14717;46.924;15.474;2023-04-02T09:32:58;97233.78;;;13.99;63.87
27202;BME280;14717;46.924;15.474;2023-04-02T09:35:31;97232.63;;;14.00;64.52
27202;BME280;14717;46.924;15.474;2023-04-02T09:40:40;97227.56;;;14.10;65.89
27202;BME280;14717;46.924;15.474;2023-04-02T09:45:55;97234.03;;;14.40;65.19
27202;BME280;14717;46.924;15.474;2023-04-02T09:48:26;97237.88;;;14.55;66.20
27202;BME280;14717;46.924;15.474;2023-04-02T09:51:14;97249.41;;;14.74;66.17
27202;BME280;14717;46.924;15.474;2023-04-02T09:53:49;97240.84;;;14.50;64.56
27202;BME280;14717;46.924;15.474;2023-04-02T09:59:04;97235.56;;;14.66;63.70
27202;BME280;14717;46.924;15.474;2023-04-02T10:01:39;97240.84;;;14.50;61.55
27202;BME280;14717;46.924;15.474;2023-04-02T10:04:28;97237.22;;;14.58;59.93
27202;BME280;14717;46.924;15.474;2023-04-02T10:06:52;97240.19;;;14.90;58.90
27202;BME280;14717;46.924;15.474;2023-04-02T10:09:30;97240.34;;;15.14;58.23
27202;BME280;14717;46.924;15.474;2023-04-02T10:11:57;97237.50;;;15.02;58.39
27202;BME280;14717;46.924;15.474;2023-04-02T10:14:30;97231.84;;;15.19;58.69
27202;BME280;14717;46.924;15.474;2023-04-02T10:17:14;97235.94;;;15.62;57.50
27202;BME280;14717;46.924;15.474;2023-04-02T10:19:47;97230.50;;;15.86;56.34
27202;BME280;14717;46.924;15.474;2023-04-02T10:22:17;97236.81;;;15.75;53.93
27202;BME280;14717;46.924;15.474;2023-04-02T10:24:43;97228.22;;;15.68;53.48
27202;BME280;14717;46.924;15.474;2023-04-02T10:27:34;97231.56;;;15.93;50.58
27202;BME280;14717;46.924;15.474;2023-04-02T10:35:20;97230.31;;;16.03;54.49
27202;BME280;14717;46.924;15.474;2023-04-02T10:38:03;97222.69;;;16.12;52.39
27202;BME280;14717;46.924;15.474;2023-04-02T10:40:59;97229.78;;;16.09;53.75
27202;BME280;14717;46.924;15.474;2023-04-02T10:43:42;97228.75;;;16.46;50.97
27202;BME280;14717;46.924;15.474;2023-04-02T10:49:19;97225.72;;;16.51;49.39
27202;BME280;14717;46.924;15.474;2023-04-02T10:59:48;97228.88;;;16.61;47.78
27202;BME280;14717;46.924;15.474;2023-04-02T11:02:28;97239.38;;;16.88;46.67
27202;BME280;14717;46.924;15.474;2023-04-02T11:04:56;97220.56;;;17.20;47.99
27202;BME280;14717;46.924;15.474;2023-04-02T11:07:25;97214.38;;;17.27;44.36
27202;BME280;14717;46.924;15.474;2023-04-02T11:09:55;97219.44;;;17.60;44.37
27202;BME280;14717;46.924;15.474;2023-04-02T11:15:13;97215.69;;;17.56;45.11
27202;BME280;14717;46.924;15.474;2023-04-02T11:17:42;97211.69;;;17.81;43.58
27202;BME280;14717;46.924;15.474;2023-04-02T11:23:26;97228.28;;;18.29;42.57
27202;BME280;14717;46.924;15.474;2023-04-02T11:29:16;97219.34;;;18.23;43.58
27202;BME280;14717;46.924;15.474;2023-04-02T11:31:44;97210.53;;;18.09;42.77
27202;BME280;14717;46.924;15.474;2023-04-02T11:37:35;97211.84;;;18.00;43.77
27202;BME280;14717;46.924;15.474;2023-04-02T11:42:46;97207.78;;;18.67;43.21
27202;BME280;14717;46.924;15.474;2023-04-02T11:50:40;97210.50;;;17.82;43.09
27202;BME280;14717;46.924;15.474;2023-04-02T11:58:50;97211.50;;;18.29;41.35
27202;BME280;14717;46.924;15.474;2023-04-02T12:01:41;97206.88;;;17.54;41.27
27202;BME280;14717;46.924;15.474;2023-04-02T12:07:48;97209.75;;;17.97;44.01
27202;BME280;14717;46.924;15.474;2023-04-02T12:10:27;97197.34;;;18.10;40.61
27202;BME280;14717;46.924;15.474;2023-04-02T12:12:58;97198.88;;;18.07;41.32
27202;BME280;14717;46.924;15.474;2023-04-02T12:18:22;97217.16;;;16.91;43.57
27202;BME280;14717;46.924;15.474;2023-04-02T12:20:54;97206.25;;;17.34;43.66
27202;BME280;14717;46.924;15.474;2023-04-02T12:23:34;97204.16;;;17.19;43.60
27202;BME280;14717;46.924;15.474;2023-04-02T12:26:03;97209.81;;;16.99;44.73
27202;BME280;14717;46.924;15.474;2023-04-02T12:28:34;97211.94;;;16.90;44.75
27202;BME280;14717;46.924;15.474;2023-04-02T12:33:35;97203.69;;;16.81;43.54
27202;BME280;14717;46.924;15.474;2023-04-02T12:38:46;97208.81;;;16.79;44.81
27202;BME280;14717;46.924;15.474;2023-04-02T12:41:35;97210.63;;;16.87;45.16
27202;BME280;14717;46.924;15.474;2023-04-02T12:44:10;97208.81;;;16.91;43.48
27202;BME280;14717;46.924;15.474;2023-04-02T12:46:39;97214.97;;;16.85;45.11
27202;BME280;14717;46.924;15.474;2023-04-02T12:49:07;97208.34;;;17.01;43.18
27202;BME280;14717;46.924;15.474;2023-04-02T12:51:38;97212.63;;;17.10;46.06
27202;BME280;14717;46.924;15.474;2023-04-02T12:54:13;97213.56;;;17.14;43.23
27202;BME280;14717;46.924;15.474;2023-04-02T12:56:42;97208.66;;;17.11;42.34
27202;BME280;14717;46.924;15.474;2023-04-02T12:59:33;97204.25;;;17.10;44.19
27202;BME280;14717;46.924;15.474;2023-04-02T13:02:02;97211.22;;;17.16;42.75
27202;BME280;14717;46.924;15.474;2023-04-02T13:04:29;97206.44;;;17.41;43.54
27202;BME280;14717;46.924;15.474;2023-04-02T13:06:55;97200.06;;;17.40;42.13
27202;BME280;14717;46.924;15.474;2023-04-02T13:09:34;97200.16;;;17.32;46.35
27202;BME280;14717;46.924;15.474;2023-04-02T13:12:00;97198.19;;;17.83;42.63
27202;BME280;14717;46.924;15.474;2023-04-02T13:14:33;97198.44;;;18.33;43.11
27202;BME280;14717;46.924;15.474;2023-04-02T13:16:58;97198.09;;;18.65;41.02
27202;BME280;14717;46.924;15.474;2023-04-02T13:19:29;97206.31;;;18.42;41.59
27202;BME280;14717;46.924;15.474;2023-04-02T13:21:57;97205.56;;;17.64;41.81
27202;BME280;14717;46.924;15.474;2023-04-02T13:24:26;97204.53;;;17.56;41.49
27202;BME280;14717;46.924;15.474;2023-04-02T13:26:55;97200.19;;;17.71;41.54
27202;BME280;14717;46.924;15.474;2023-04-02T13:29:32;97201.69;;;17.80;40.35
27202;BME280;14717;46.924;15.474;2023-04-02T13:32:00;97203.88;;;17.48;41.27
27202;BME280;14717;46.924;15.474;2023-04-02T13:34:27;97207.84;;;17.35;40.69
27202;BME280;14717;46.924;15.474;2023-04-02T13:36:54;97221.72;;;17.19;41.23
27202;BME280;14717;46.924;15.474;2023-04-02T13:39:21;97223.91;;;16.66;44.20
27202;BME280;14717;46.924;15.474;2023-04-02T13:44:23;97231.66;;;16.17;45.91
27202;BME280;14717;46.924;15.474;2023-04-02T13:46:50;97234.53;;;16.09;45.56
27202;BME280;14717;46.924;15.474;2023-04-02T13:49:16;97247.25;;;15.98;46.22
27202;BME280;14717;46.924;15.474;2023-04-02T13:51:46;97240.16;;;16.00;46.36
27202;BME280;14717;46.924;15.474;2023-04-02T13:54:29;97252.78;;;15.86;46.97
27202;BME280;14717;46.924;15.474;2023-04-02T13:56:59;97253.78;;;15.81;48.55
27202;BME280;14717;46.924;15.474;2023-04-02T13:59:24;97244.47;;;15.98;48.05
27202;BME280;14717;46.924;15.474;2023-04-02T14:01:56;97252.72;;;15.94;46.13
27202;BME280;14717;46.924;15.474;2023-04-02T14:04:28;97252.88;;;15.77;49.93
27202;BME280;14717;46.924;15.474;2023-04-02T14:17:28;97249.25;;;15.97;46.69
27202;BME280;14717;46.924;15.474;2023-04-02T14:20:10;97247.47;;;15.93;46.64
27202;BME280;14717;46.924;15.474;2023-04-02T14:23:00;97253.44;;;16.03;45.33
27202;BME280;14717;46.924;15.474;2023-04-02T14:25:40;97253.47;;;16.15;45.92
27202;BME280;14717;46.924;15.474;2023-04-02T14:34:07;97257.94;;;15.96;45.17
27202;BME280;14717;46.924;15.474;2023-04-02T14:36:41;97255.97;;;15.96;45.47
27202;BME280;14717;46.924;15.474;2023-04-02T14:40:20;97257.66;;;16.09;45.45
27202;BME280;14717;46.924;15.474;2023-04-02T14:42:28;97258.03;;;16.19;45.42
27202;BME280;14717;46.924;15.474;2023-04-02T14:45:40;97258.50;;;16.21;43.65
27202;BME280;14717;46.924;15.474;2023-04-02T14:47:50;97256.56;;;16.22;44.26
27202;BME280;14717;46.924;15.474;2023-04-02T14:50:27;97257.09;;;16.16;42.59
27202;BME280;14717;46.924;15.474;2023-04-02T14:52:59;97265.25;;;16.00;42.41
27202;BME280;14717;46.924;15.474;2023-04-02T14:55:35;97263.38;;;15.92;42.59
27202;BME280;14717;46.924;15.474;2023-04-02T14:58:04;97268.00;;;15.88;42.82
27202;BME280;14717;46.924;15.474;2023-04-02T15:00:40;97260.94;;;15.91;44.12
27202;BME280;14717;46.924;15.474;2023-04-02T15:03:17;97272.81;;;16.00;44.11
27202;BME280;14717;46.924;15.474;2023-04-02T15:05:47;97267.31;;;15.91;44.24
27202;BME280;14717;46.924;15.474;2023-04-02T15:08:27;97273.13;;;15.98;44.05
27202;BME280;14717;46.924;15.474;2023-04-02T15:11:24;97284.03;;;15.91;43.67
27202;BME280;14717;46.924;15.474;2023-04-02T15:16:42;97273.44;;;15.85;44.36
27202;BME280;14717;46.924;15.474;2023-04-02T15:19:12;97280.97;;;15.84;43.68
27202;BME280;14717;46.924;15.474;2023-04-02T15:24:32;97274.09;;;15.82;44.26
27202;BME280;14717;46.924;15.474;2023-04-02T15:32:37;97285.78;;;15.75;44.84
27202;BME280;14717;46.924;15.474;2023-04-02T15:38:00;97299.50;;;15.60;43.77
27202;BME280;14717;46.924;15.474;2023-04-02T15:40:38;97293.34;;;15.55;44.57
27202;BME280;14717;46.924;15.474;2023-04-02T15:43:30;97295.47;;;15.49;44.76
27202;BME280;14717;46.924;15.474;2023-04-02T15:52:04;97306.59;;;15.29;45.10
27202;BME280;14717;46.924;15.474;2023-04-02T16:02:57;97320.88;;;15.19;45.15
27202;BME280;14717;46.924;15.474;2023-04-02T16:10:38;97327.28;;;15.11;44.66
27202;BME280;14717;46.924;15.474;2023-04-02T16:13:28;97341.19;;;15.11;45.78
27202;BME280;14717;46.924;15.474;2023-04-02T16:21:44;97354.03;;;14.95;45.58
27202;BME280;14717;46.924;15.474;2023-04-02T16:24:13;97355.69;;;14.88;45.01
27202;BME280;14717;46.924;15.474;2023-04-02T16:34:52;97375.06;;;14.68;46.58
27202;BME280;14717;46.924;15.474;2023-04-02T16:48:33;97395.38;;;14.43;46.44
27202;BME280;14717;46.924;15.474;2023-04-02T16:51:20;97394.22;;;14.36;46.63
27202;BME280;14717;46.924;15.474;2023-04-02T16:53:56;97399.78;;;14.36;47.38
27202;BME280;14717;46.924;15.474;2023-04-02T16:59:39;97408.47;;;14.17;47.67
27202;BME280;14717;46.924;15.474;2023-04-02T17:02:25;97405.34;;;14.19;46.89